Time;durP1;ratioP1;P1;durP2;ratioP2;P2;SDS_P1;SDS_P2;PMS_P1;PMS_P2;Temp;Humidity;BMP_temperature;BMP_pressure;BME280_temperature;BME280_humidity;BME280_pressure;Samples;Min_cycle;Max_cycle;Signal;HPM_P1;HPM_P2
2022/03/26 00:00:50;;;;;;;23.23;11.70;;;;;;;-143.84;72.74;45039.53;5031443;28;20856;-71
2022/03/26 00:03:18;;;;;;;17.83;13.43;;;;;;;-143.84;72.82;45083.34;5049004;28;20434;-71
2022/03/26 00:05:45;;;;;;;19.63;12.93;;;;;;;-143.84;72.83;45064.31;5049089;28;20501;-71
2022/03/26 00:08:13;;;;;;;16.67;11.37;;;;;;;-143.84;72.64;45077.63;5048871;28;20513;-71
2022/03/26 00:10:40;;;;;;;18.80;12.83;;;;;;;-143.84;72.51;45058.59;5049219;28;20464;-71
2022/03/26 00:13:09;;;;;;;18.50;14.13;;;;;;;-143.84;72.36;45094.78;5048973;28;20466;-71
2022/03/26 00:15:36;;;;;;;16.07;12.10;;;;;;;-143.84;73.02;45068.13;5048615;28;20453;-71
2022/03/26 00:18:04;;;;;;;14.60;11.30;;;;;;;-143.84;72.50;45064.31;5049161;28;20928;-71
2022/03/26 00:20:31;;;;;;;19.40;11.80;;;;;;;-143.84;72.90;45071.91;5049198;28;20469;-72
2022/03/26 00:22:58;;;;;;;15.73;11.60;;;;;;;-143.84;72.86;45052.88;5048763;28;20472;-72
2022/03/26 00:25:25;;;;;;;22.13;11.67;;;;;;;-143.84;72.52;45050.97;5048866;28;20446;-71
2022/03/26 00:27:52;;;;;;;15.00;11.77;;;;;;;-143.84;72.36;45096.66;5048592;28;20531;-71
2022/03/26 00:30:21;;;;;;;15.57;11.93;;;;;;;-143.84;72.74;45071.91;5048445;28;20441;-71
2022/03/26 00:32:48;;;;;;;17.50;12.87;;;;;;;-143.84;72.71;45073.81;5048489;28;20453;-71
2022/03/26 00:35:15;;;;;;;16.27;12.00;;;;;;;-143.84;72.31;45089.06;5048848;28;20429;-71
2022/03/26 00:37:42;;;;;;;17.63;11.30;;;;;;;-143.84;72.56;45077.63;5050127;28;20438;-71
2022/03/26 00:40:10;;;;;;;15.00;11.30;;;;;;;-143.84;72.82;45090.97;5052385;28;20507;-71
2022/03/26 00:42:38;;;;;;;17.93;12.80;;;;;;;-143.84;72.74;45060.50;5052299;28;20449;-71
2022/03/26 00:45:08;;;;;;;17.00;11.93;;;;;;;-143.84;72.76;45062.41;5052418;28;20487;-71
2022/03/26 00:47:36;;;;;;;22.57;11.07;;;;;;;-143.84;72.41;45066.22;5052138;28;20469;-71
2022/03/26 00:50:04;;;;;;;18.13;12.33;;;;;;;-143.84;72.77;45068.13;5052472;28;20441;-72
2022/03/26 00:52:32;;;;;;;17.40;12.13;;;;;;;-143.84;72.73;45090.97;5052366;28;20511;-72
2022/03/26 00:54:59;;;;;;;14.57;10.83;;;;;;;-143.84;72.55;45071.91;5051902;28;20441;-71
2022/03/26 00:57:26;;;;;;;14.30;10.03;;;;;;;-143.84;72.74;45083.34;5052140;28;20512;-71
2022/03/26 00:59:53;;;;;;;19.70;12.30;;;;;;;-143.84;72.97;45068.13;5052093;28;20507;-71
2022/03/26 01:02:20;;;;;;;17.17;12.40;;;;;;;-143.84;73.23;45045.25;5051967;28;20433;-71
2022/03/26 01:04:49;;;;;;;20.53;12.00;;;;;;;-143.84;73.21;45087.16;5052116;28;20491;-71
2022/03/26 01:07:16;;;;;;;22.47;11.70;;;;;;;-143.84;73.06;45064.31;5051705;28;20490;-71
2022/03/26 01:09:43;;;;;;;17.13;11.33;;;;;;;-143.84;73.27;45062.41;5051875;28;20442;-72
2022/03/26 01:12:12;;;;;;;16.73;10.60;;;;;;;-143.84;73.30;45083.34;5052160;28;20449;-72
2022/03/26 01:14:39;;;;;;;17.13;12.00;;;;;;;-143.84;73.26;45068.13;5051706;28;20495;-72
2022/03/26 01:17:07;;;;;;;16.83;12.40;;;;;;;-143.84;72.77;45079.53;5051870;28;20453;-72
2022/03/26 01:19:34;;;;;;;19.40;12.20;;;;;;;-143.84;72.70;45056.69;5051517;28;20955;-72
2022/03/26 01:22:04;;;;;;;16.33;12.00;;;;;;;-143.84;72.50;45052.88;5051464;28;21061;-71
2022/03/26 01:24:31;;;;;;;17.27;11.23;;;;;;;-143.84;72.64;45075.72;5051308;28;20447;-71
2022/03/26 01:26:58;;;;;;;19.13;11.07;;;;;;;-143.84;73.13;45049.06;5051699;28;20481;-71
2022/03/26 01:29:26;;;;;;;16.20;10.90;;;;;;;-143.84;73.13;45079.53;5051750;28;20438;-72
2022/03/26 01:31:53;;;;;;;17.30;11.10;;;;;;;-143.84;72.79;45071.91;5051748;28;20530;-72
2022/03/26 01:34:22;;;;;;;12.87;9.60;;;;;;;-143.84;73.03;45066.22;5050696;28;20520;-72
2022/03/26 01:36:50;;;;;;;18.33;10.83;;;;;;;-143.84;73.13;45098.56;5050125;28;20446;-72
2022/03/26 01:39:20;;;;;;;19.00;11.70;;;;;;;-143.84;72.67;45085.25;5050597;28;20453;-72
2022/03/26 01:41:48;;;;;;;19.27;11.27;;;;;;;-143.84;73.08;45066.22;5051253;28;20783;-72
2022/03/26 01:44:15;;;;;;;14.73;11.00;;;;;;;-143.84;72.94;45083.34;5050957;28;20512;-71
2022/03/26 01:46:47;;;;;;;14.20;10.10;;;;;;;-143.84;73.10;45079.53;5051159;28;20434;-71
2022/03/26 01:49:15;;;;;;;13.20;10.00;;;;;;;-143.84;73.18;45062.41;5050500;28;20474;-71
2022/03/26 01:51:42;;;;;;;15.10;10.60;;;;;;;-143.84;72.98;45085.25;5051415;28;20446;-71
2022/03/26 01:54:11;;;;;;;17.43;10.83;;;;;;;-143.84;73.02;45077.63;5051391;28;20436;-72
2022/03/26 01:56:40;;;;;;;16.13;11.10;;;;;;;-143.84;73.22;45077.63;5050816;28;20485;-72
2022/03/26 01:59:08;;;;;;;15.97;10.83;;;;;;;-143.84;72.96;45028.13;5051091;28;20798;-71
2022/03/26 02:01:35;;;;;;;18.73;10.27;;;;;;;-143.84;73.04;45077.63;5050875;28;20445;-72
2022/03/26 02:04:03;;;;;;;12.83;9.70;;;;;;;-143.84;73.20;45090.97;5050847;28;20442;-71
2022/03/26 02:06:32;;;;;;;11.50;10.10;;;;;;;-143.84;73.76;45090.97;5050901;28;20452;-71
2022/03/26 02:08:59;;;;;;;16.87;10.70;;;;;;;-143.84;73.60;45087.16;5050769;28;20497;-72
2022/03/26 02:11:27;;;;;;;15.70;11.50;;;;;;;-143.84;74.10;45077.63;5051041;28;20852;-72
2022/03/26 02:13:57;;;;;;;15.50;10.97;;;;;;;-143.84;73.73;45052.88;5050635;28;20445;-72
2022/03/26 02:16:25;;;;;;;20.13;12.87;;;;;;;-143.84;73.98;45102.38;5050788;28;20988;-72
2022/03/26 02:18:52;;;;;;;17.03;12.03;;;;;;;-143.84;74.61;45075.72;5050502;28;20441;-72
2022/03/26 02:21:22;;;;;;;15.30;11.10;;;;;;;-143.84;73.73;45049.06;5050656;28;20450;-72
2022/03/26 02:23:51;;;;;;;19.60;10.07;;;;;;;-143.84;73.55;45070.00;5050738;28;20444;-72
2022/03/26 02:26:21;;;;;;;16.53;10.60;;;;;;;-143.84;73.24;45068.13;5050437;28;21168;-72
2022/03/26 02:28:49;;;;;;;16.97;10.60;;;;;;;-143.84;72.54;45077.63;5050354;28;21065;-72
2022/03/26 02:31:17;;;;;;;15.87;10.40;;;;;;;-143.84;72.62;45047.16;5050844;28;20469;-72
2022/03/26 02:33:45;;;;;;;15.47;11.90;;;;;;;-143.84;72.59;45075.72;5050187;28;20447;-72
2022/03/26 02:36:13;;;;;;;13.33;10.67;;;;;;;-143.84;72.74;45090.97;5050389;28;20504;-72
2022/03/26 02:38:42;;;;;;;14.63;11.23;;;;;;;-143.84;72.82;45083.34;5050344;28;20452;-72
2022/03/26 02:41:09;;;;;;;14.67;10.57;;;;;;;-143.84;72.58;45087.16;5050487;28;20438;-72
2022/03/26 02:43:36;;;;;;;18.10;11.03;;;;;;;-143.84;72.78;45077.63;5050379;28;21327;-72
2022/03/26 02:46:04;;;;;;;17.70;10.73;;;;;;;-143.84;73.16;45087.16;5050424;28;21210;-72
2022/03/26 02:48:33;;;;;;;14.97;10.27;;;;;;;-143.84;73.03;45070.00;5050358;28;21014;-72
2022/03/26 02:51:00;;;;;;;12.90;9.93;;;;;;;-143.84;73.73;45092.88;5050059;28;20508;-72
2022/03/26 02:53:27;;;;;;;19.57;11.37;;;;;;;-143.84;73.54;45087.16;5050118;28;20445;-72
2022/03/26 02:55:55;;;;;;;16.57;11.30;;;;;;;-143.84;73.29;45070.00;5049550;28;20568;-72
2022/03/26 02:58:23;;;;;;;13.80;11.13;;;;;;;-143.84;73.05;45068.13;5049592;28;20948;-72
2022/03/26 03:00:50;;;;;;;17.20;10.87;;;;;;;-143.84;72.99;45064.31;5048647;28;20446;-71
2022/03/26 03:03:18;;;;;;;13.47;10.07;;;;;;;-143.84;73.19;45075.72;5048965;28;20468;-71
2022/03/26 03:05:46;;;;;;;12.70;10.17;;;;;;;-143.84;73.19;45070.00;5049299;28;20511;-72
2022/03/26 03:08:15;;;;;;;14.63;10.93;;;;;;;-143.84;73.27;45083.34;5049575;28;20500;-72
2022/03/26 03:10:43;;;;;;;16.90;10.77;;;;;;;-143.84;72.76;45070.00;5049579;28;20464;-72
2022/03/26 03:13:12;;;;;;;16.43;11.10;;;;;;;-143.84;73.08;45079.53;5049457;28;20491;-72
2022/03/26 03:15:40;;;;;;;14.60;10.10;;;;;;;-143.84;73.29;45064.31;5049521;28;20449;-72
2022/03/26 03:18:07;;;;;;;14.57;9.87;;;;;;;-143.84;73.64;45094.78;5049376;28;20500;-72
2022/03/26 03:20:34;;;;;;;15.00;11.00;;;;;;;-143.84;73.47;45075.72;5049515;28;20441;-72
2022/03/26 03:23:01;;;;;;;14.57;10.77;;;;;;;-143.84;74.50;45094.78;5049386;28;20448;-72
2022/03/26 03:25:29;;;;;;;13.80;10.70;;;;;;;-143.84;73.81;45070.00;5049851;28;20438;-72
2022/03/26 03:27:57;;;;;;;16.23;10.43;;;;;;;-143.84;74.20;45049.06;5049196;28;20564;-73
2022/03/26 03:30:27;;;;;;;16.20;10.50;;;;;;;-143.84;73.77;45037.66;5049331;28;20437;-72
2022/03/26 03:32:54;;;;;;;15.20;10.30;;;;;;;-143.84;73.73;45092.88;5049122;28;20533;-72
2022/03/26 03:35:22;;;;;;;14.60;9.60;;;;;;;-143.84;72.95;45104.28;5049113;28;21011;-73
2022/03/26 03:37:51;;;;;;;12.17;8.80;;;;;;;-143.84;73.19;45064.31;5049191;28;20947;-72
2022/03/26 03:40:18;;;;;;;13.83;10.00;;;;;;;-143.84;73.31;45073.81;5049376;28;20446;-72
2022/03/26 03:42:46;;;;;;;13.57;9.70;;;;;;;-143.84;72.93;45075.72;5049425;28;20445;-72
2022/03/26 03:45:13;;;;;;;16.40;9.87;;;;;;;-143.84;72.84;45068.13;5049177;28;20453;-72
2022/03/26 03:47:42;;;;;;;14.90;9.97;;;;;;;-143.84;72.56;45085.25;5048954;28;20500;-72
2022/03/26 03:50:10;;;;;;;16.93;9.23;;;;;;;-143.84;72.70;45073.81;5048968;28;20513;-72
2022/03/26 03:52:37;;;;;;;13.93;9.93;;;;;;;-143.84;72.41;45060.50;5049341;28;20812;-71
2022/03/26 03:55:06;;;;;;;14.13;9.10;;;;;;;-143.84;71.84;45102.38;5048838;28;21053;-72
2022/03/26 03:57:33;;;;;;;12.97;9.70;;;;;;;-143.84;72.13;45064.31;5049022;28;20445;-72
2022/03/26 04:00:00;;;;;;;14.80;11.10;;;;;;;-143.84;72.11;45094.78;5049035;28;20819;-72
2022/03/26 04:02:29;;;;;;;14.07;9.50;;;;;;;-143.84;71.41;45071.91;5048652;28;20437;-72
2022/03/26 04:04:57;;;;;;;13.50;9.27;;;;;;;-143.84;71.66;45089.06;5048895;28;20525;-72
2022/03/26 04:07:24;;;;;;;13.53;9.30;;;;;;;-143.84;71.54;45089.06;5048982;28;20472;-73
2022/03/26 04:09:52;;;;;;;17.27;10.67;;;;;;;-143.84;71.11;45094.78;5048575;28;20481;-72
2022/03/26 04:12:19;;;;;;;13.47;9.63;;;;;;;-143.84;70.71;45094.78;5049899;28;20452;-72
2022/03/26 04:14:46;;;;;;;21.30;10.97;;;;;;;-143.84;70.79;45092.88;5052669;28;20449;-72
2022/03/26 04:17:13;;;;;;;17.73;10.00;;;;;;;-143.84;70.46;45098.56;5052782;28;20520;-72
2022/03/26 04:19:41;;;;;;;12.90;9.30;;;;;;;-143.84;70.94;45090.97;5052545;28;20447;-72
2022/03/26 04:22:09;;;;;;;16.40;9.67;;;;;;;-143.84;70.17;45081.44;5052677;28;20855;-72
2022/03/26 04:24:40;;;;;;;14.03;10.30;;;;;;;-143.84;70.23;45052.88;5052704;28;20445;-73
2022/03/26 04:27:07;;;;;;;15.10;10.00;;;;;;;-143.84;70.09;45079.53;5052674;28;20532;-72
2022/03/26 04:29:34;;;;;;;13.63;9.87;;;;;;;-143.84;70.51;45125.22;5052655;28;20474;-72
2022/03/26 04:32:02;;;;;;;14.70;9.90;;;;;;;-143.84;69.92;45096.66;5052581;28;20447;-72
2022/03/26 04:34:29;;;;;;;17.13;11.80;;;;;;;-143.84;70.31;45090.97;5052715;28;20502;-72
2022/03/26 04:36:56;;;;;;;12.30;9.10;;;;;;;-143.84;69.92;45052.88;5052571;28;20963;-72
2022/03/26 04:39:24;;;;;;;25.83;10.27;;;;;;;-143.84;69.75;45090.97;5052749;28;20522;-72
2022/03/26 04:41:52;;;;;;;15.80;10.40;;;;;;;-143.84;69.61;45077.63;5052465;28;20445;-72
2022/03/26 04:44:19;;;;;;;15.33;11.50;;;;;;;-143.84;69.36;45068.13;5052284;28;20453;-72
2022/03/26 04:46:46;;;;;;;15.13;10.03;;;;;;;-143.84;69.69;45094.78;5052463;28;20506;-72
2022/03/26 04:49:13;;;;;;;23.10;10.70;;;;;;;-143.84;69.76;45083.34;5052185;28;20894;-72
2022/03/26 04:51:40;;;;;;;18.13;11.30;;;;;;;-143.84;69.37;45094.78;5052356;28;20495;-72
2022/03/26 04:54:07;;;;;;;17.40;11.70;;;;;;;-143.84;68.94;45089.06;5052264;28;20579;-72
2022/03/26 04:56:36;;;;;;;17.90;10.00;;;;;;;-143.84;69.40;45087.16;5051794;28;20488;-70
2022/03/26 04:59:03;;;;;;;17.47;10.47;;;;;;;-143.84;69.83;45087.16;5052082;28;21228;-70
2022/03/26 05:01:30;;;;;;;18.73;10.67;;;;;;;-143.84;68.88;45083.34;5052335;28;20442;-70
2022/03/26 05:03:57;;;;;;;19.93;12.10;;;;;;;-143.84;67.55;45092.88;5052433;28;21229;-70
2022/03/26 05:06:25;;;;;;;17.13;10.03;;;;;;;-143.84;67.07;45075.72;5052149;28;20452;-70
2022/03/26 05:08:52;;;;;;;16.83;11.50;;;;;;;-143.84;66.26;45077.63;5052240;28;20484;-70
2022/03/26 05:11:19;;;;;;;14.73;11.00;;;;;;;-143.84;65.21;45064.31;5052243;28;20460;-70
2022/03/26 05:13:48;;;;;;;17.93;11.87;;;;;;;-143.84;64.54;45064.31;5051780;28;20440;-72
2022/03/26 05:16:15;;;;;;;14.97;11.73;;;;;;;-143.84;63.90;45064.31;5051850;28;20452;-71
2022/03/26 05:18:42;;;;;;;17.40;11.20;;;;;;;-143.84;63.35;45062.41;5051849;28;20449;-71
2022/03/26 05:21:09;;;;;;;16.93;11.87;;;;;;;-143.84;62.41;45054.78;5051795;28;20503;-71
2022/03/26 05:23:37;;;;;;;23.30;11.90;;;;;;;-143.84;61.63;45068.13;5050757;28;20445;-73
2022/03/26 05:26:04;;;;;;;19.23;12.20;;;;;;;-143.84;61.32;45049.06;5051236;28;20453;-71
2022/03/26 05:28:32;;;;;;;17.67;12.47;;;;;;;-143.84;60.46;45066.22;5051278;28;20825;-72
2022/03/26 05:31:00;;;;;;;19.73;12.33;;;;;;;-143.84;60.14;45031.94;5051729;28;20438;-72
2022/03/26 05:33:27;;;;;;;15.23;10.47;;;;;;;-143.84;59.93;45030.03;5051423;28;20450;-72
2022/03/26 05:35:55;;;;;;;17.03;12.47;;;;;;;-143.84;59.27;45052.88;5051668;28;20448;-72
2022/03/26 05:38:22;;;;;;;15.93;10.83;;;;;;;-143.84;59.04;45045.25;5051306;28;20434;-72
2022/03/26 05:40:50;;;;;;;22.97;13.37;;;;;;;-143.84;58.42;45041.44;5051028;28;20528;-72
2022/03/26 05:43:18;;;;;;;18.57;11.07;;;;;;;-143.84;57.98;45052.88;5051480;28;20516;-72
2022/03/26 05:45:45;;;;;;;15.20;11.40;;;;;;;-143.84;57.58;45039.53;5051128;28;20445;-71
2022/03/26 05:48:14;;;;;;;20.00;12.30;;;;;;;-143.84;57.84;45039.53;5050364;28;20859;-72
2022/03/26 05:50:41;;;;;;;19.40;12.03;;;;;;;-143.84;58.20;45070.00;5050383;28;20814;-72
2022/03/26 05:53:09;;;;;;;15.87;11.10;;;;;;;-143.84;56.94;45050.97;5039541;28;20470;-74
2022/03/26 05:55:36;;;;;;;15.90;10.50;;;;;;;-143.84;59.01;45037.66;5036742;28;20489;-74
2022/03/26 05:58:05;;;;;;;16.07;12.10;;;;;;;-143.84;57.94;45071.91;5062788;28;20421;-75
2022/03/26 06:00:32;;;;;;;16.93;12.43;;;;;;;-143.84;56.86;45028.13;5047388;28;20446;-75
2022/03/26 06:03:00;;;;;;;18.27;12.07;;;;;;;-143.84;56.10;45033.84;5056683;28;20453;-74
2022/03/26 06:05:29;;;;;;;16.90;11.60;;;;;;;-143.84;55.75;45054.78;5036098;28;20446;-76
2022/03/26 06:07:56;;;;;;;16.80;12.60;;;;;;;-143.84;55.03;45047.16;5047123;28;21217;-75
2022/03/26 06:10:24;;;;;;;24.33;12.37;;;;;;;-143.84;54.75;45041.44;5039071;28;21010;-75
2022/03/26 06:12:52;;;;;;;19.57;11.97;;;;;;;-143.84;55.00;45054.78;5040318;28;20515;-76
2022/03/26 06:15:20;;;;;;;14.23;11.10;;;;;;;-143.84;54.83;45043.34;5041542;28;20457;-74
2022/03/26 06:17:48;;;;;;;17.40;11.97;;;;;;;-143.84;54.08;45037.66;5039728;28;20979;-75
2022/03/26 06:20:16;;;;;;;21.13;11.40;;;;;;;-143.84;53.95;45039.53;5038481;28;20458;-75
2022/03/26 06:22:45;;;;;;;18.27;12.17;;;;;;;-143.84;53.52;45033.84;5050493;28;20442;-71
2022/03/26 06:25:12;;;;;;;16.00;11.33;;;;;;;-143.84;52.47;45035.75;5043902;28;20462;-71
2022/03/26 06:27:40;;;;;;;17.47;11.10;;;;;;;-143.84;52.78;45043.34;5038620;28;20550;-73
2022/03/26 06:30:10;;;;;;;12.60;10.60;;;;;;;-143.84;52.42;45041.44;5039089;28;20488;-73
2022/03/26 06:32:37;;;;;;;22.10;11.50;;;;;;;-143.84;51.86;45033.84;5038135;28;20498;-73
2022/03/26 06:35:05;;;;;;;15.23;10.97;;;;;;;-143.84;49.95;45037.66;5038158;28;20872;-73
2022/03/26 06:37:33;;;;;;;14.80;10.47;;;;;;;-143.84;49.62;45014.78;5037719;28;20538;-73
2022/03/26 06:40:02;;;;;;;19.17;12.00;;;;;;;-143.84;50.05;45010.97;5037859;28;20855;-73
2022/03/26 06:42:30;;;;;;;13.43;9.40;;;;;;;-143.84;48.25;45024.31;5036837;28;20450;-73
2022/03/26 06:45:00;;;;;;;18.50;11.63;;;;;;;-143.84;48.87;45018.59;5040779;28;20462;-73
2022/03/26 06:47:30;;;;;;;12.90;9.87;;;;;;;-143.84;47.83;45001.47;5038573;28;20469;-73
2022/03/26 06:49:57;;;;;;;16.37;10.50;;;;;;;-143.84;46.95;45012.88;5040919;28;20567;-73
2022/03/26 06:52:25;;;;;;;15.37;10.23;;;;;;;-143.84;47.12;45007.19;5045701;28;20452;-73
2022/03/26 06:54:53;;;;;;;15.83;11.10;;;;;;;-143.84;46.86;45030.03;5037634;28;20458;-74
2022/03/26 06:57:22;;;;;;;12.87;10.70;;;;;;;-143.84;46.81;45001.47;5020669;28;20453;-74
2022/03/26 06:59:50;;;;;;;12.40;10.00;;;;;;;-143.84;45.20;45030.03;5038038;28;20450;-75
2022/03/26 07:02:18;;;;;;;11.87;10.57;;;;;;;-143.84;45.07;45018.59;5040386;28;20446;-74
2022/03/26 07:04:45;;;;;;;12.40;9.80;;;;;;;-143.84;44.56;44995.75;5037955;28;20540;-75
2022/03/26 07:07:15;;;;;;;13.73;10.20;;;;;;;-143.84;44.07;44993.84;5047903;28;20972;-74
2022/03/26 07:09:43;;;;;;;16.10;10.73;;;;;;;-143.84;44.10;45010.97;5049313;28;20489;-74
2022/03/26 07:12:12;;;;;;;13.70;10.80;;;;;;;-143.84;44.24;45014.78;5049905;28;20940;-74
2022/03/26 07:14:42;;;;;;;15.47;11.57;;;;;;;-143.84;43.70;45022.41;5049432;28;20446;-74
2022/03/26 07:17:09;;;;;;;13.40;10.90;;;;;;;-143.84;43.90;44990.03;5049304;28;20479;-74
2022/03/26 07:19:37;;;;;;;15.63;9.97;;;;;;;-143.84;44.04;44986.22;5049309;28;20439;-74
2022/03/26 07:22:06;;;;;;;15.20;11.00;;;;;;;-143.84;42.28;44997.66;5047540;28;20497;-74
2022/03/26 07:24:33;;;;;;;10.90;9.37;;;;;;;-143.84;42.71;45005.28;5048749;28;20443;-74
2022/03/26 07:27:01;;;;;;;13.27;10.80;;;;;;;-143.84;42.40;45022.41;5048937;28;20432;-74
2022/03/26 07:29:29;;;;;;;13.67;10.00;;;;;;;-143.84;42.26;45007.19;5047822;28;20470;-74
2022/03/26 07:31:58;;;;;;;12.13;10.47;;;;;;;-143.84;42.03;44988.13;5042972;28;21004;-72
2022/03/26 07:34:27;;;;;;;14.20;10.93;;;;;;;-143.84;42.48;45007.19;5047582;28;20448;-73
2022/03/26 07:36:56;;;;;;;13.53;10.97;;;;;;;-143.84;41.62;44995.75;5047103;28;20448;-72
2022/03/26 07:39:23;;;;;;;14.73;9.90;;;;;;;-143.84;41.83;44997.66;5047539;28;20457;-72
2022/03/26 07:41:51;;;;;;;11.30;9.97;;;;;;;-143.84;41.42;45014.78;5047484;28;21186;-72
2022/03/26 07:44:19;;;;;;;20.10;10.57;;;;;;;-143.84;40.64;45024.31;5048017;28;20544;-73
2022/03/26 07:46:47;;;;;;;14.07;10.87;;;;;;;-143.84;41.42;44993.84;5047445;28;20529;-73
2022/03/26 07:49:16;;;;;;;13.03;9.43;;;;;;;-143.84;40.28;44984.31;5048321;28;21108;-73
2022/03/26 07:51:44;;;;;;;13.00;10.80;;;;;;;-143.84;40.18;45001.47;5048195;28;20443;-73
2022/03/26 07:54:11;;;;;;;13.73;11.17;;;;;;;-143.84;40.66;45010.97;5048553;28;20432;-73
2022/03/26 07:56:39;;;;;;;10.97;9.30;;;;;;;-143.84;39.37;44999.56;5048548;28;20510;-73
2022/03/26 07:59:07;;;;;;;10.77;9.67;;;;;;;-143.84;40.46;44997.66;5048737;28;20890;-73
2022/03/26 08:01:35;;;;;;;12.93;9.70;;;;;;;-143.84;41.27;45007.19;5048594;28;20528;-73
2022/03/26 08:04:03;;;;;;;12.07;9.93;;;;;;;-143.84;40.49;45009.09;5048660;28;20453;-73
2022/03/26 08:06:32;;;;;;;16.40;10.80;;;;;;;-143.84;39.58;45003.38;5048198;28;20446;-74
2022/03/26 08:09:00;;;;;;;13.27;9.63;;;;;;;-143.84;39.46;44990.03;5048532;28;21008;-74
2022/03/26 08:11:29;;;;;;;14.73;11.33;;;;;;;-143.84;39.63;44988.13;5048997;28;20450;-73
2022/03/26 08:13:57;;;;;;;11.17;9.30;;;;;;;-143.84;39.31;45012.88;5048511;28;20443;-74
2022/03/26 08:16:25;;;;;;;9.67;8.30;;;;;;;-143.84;38.51;44984.31;5048507;28;20441;-74
2022/03/26 08:18:53;;;;;;;10.70;8.93;;;;;;;-143.84;39.12;45010.97;5048457;28;20788;-72
2022/03/26 08:21:21;;;;;;;12.50;9.13;;;;;;;-143.84;38.67;44978.63;5047810;28;21059;-73
2022/03/26 08:23:53;;;;;;;12.47;8.90;;;;;;;-143.84;38.63;44986.22;5048556;28;20536;-72
2022/03/26 08:26:29;;;;;;;10.80;9.70;;;;;;;-143.84;38.58;45009.09;5048309;28;20446;-73
2022/03/26 08:28:59;;;;;;;13.37;10.70;;;;;;;-143.84;38.55;44997.66;5048512;28;20959;-73
2022/03/26 08:31:31;;;;;;;11.13;9.93;;;;;;;-143.84;38.29;44969.09;5048275;28;20437;-72
2022/03/26 08:34:00;;;;;;;11.80;10.07;;;;;;;-143.84;38.52;44999.56;5047310;28;20528;-72
2022/03/26 08:36:28;;;;;;;22.97;10.17;;;;;;;-143.84;38.73;44976.72;5036546;28;20488;-72
2022/03/26 08:38:57;;;;;;;12.30;10.27;;;;;;;-143.84;38.46;44991.94;5051958;28;20455;-73
2022/03/26 08:41:26;;;;;;;14.97;10.13;;;;;;;-143.84;37.17;44984.31;5051873;28;20488;-73
2022/03/26 08:43:54;;;;;;;11.90;10.07;;;;;;;-143.84;37.75;45003.38;5047871;28;20451;-73
2022/03/26 08:46:22;;;;;;;9.90;8.40;;;;;;;-143.84;37.13;44993.84;5058808;28;20565;-72
2022/03/26 08:48:51;;;;;;;13.73;10.30;;;;;;;-143.84;36.99;44976.72;5056245;28;20460;-73
2022/03/26 08:51:19;;;;;;;11.00;9.90;;;;;;;-143.84;36.56;45001.47;5057666;28;20883;-73
2022/03/26 08:53:47;;;;;;;12.63;9.70;;;;;;;-143.84;36.28;44980.53;5059013;28;20473;-73
2022/03/26 08:56:16;;;;;;;15.20;10.10;;;;;;;-143.84;35.53;44993.84;5061148;28;20522;-73
2022/03/26 08:58:44;;;;;;;13.83;10.67;;;;;;;-143.84;36.02;44978.63;5040646;28;20480;-73
2022/03/26 09:01:12;;;;;;;18.83;9.70;;;;;;;-143.84;35.63;44963.38;5055107;28;20540;-74
2022/03/26 09:03:40;;;;;;;16.10;9.97;;;;;;;-143.84;34.65;44976.72;5034524;28;20450;-73
2022/03/26 09:06:08;;;;;;;12.30;10.03;;;;;;;-143.84;35.04;44980.53;5047683;28;20464;-73
2022/03/26 09:08:36;;;;;;;11.70;10.20;;;;;;;-143.84;34.68;44965.28;5050201;28;20793;-73
2022/03/26 09:11:04;;;;;;;11.83;10.40;;;;;;;-143.84;33.16;44971.00;5050173;28;20504;-73
2022/03/26 09:13:33;;;;;;;12.50;10.37;;;;;;;-143.84;34.25;44982.41;5036355;28;20495;-73
2022/03/26 09:16:00;;;;;;;11.50;8.90;;;;;;;-143.84;33.91;44957.66;5032804;28;20581;-73
2022/03/26 09:18:28;;;;;;;18.83;10.13;;;;;;;-143.84;33.91;44951.97;5033003;28;20455;-74
2022/03/26 09:20:56;;;;;;;10.97;9.40;;;;;;;-143.84;33.37;44953.88;5032352;28;20513;-74
2022/03/26 09:23:23;;;;;;;13.60;10.17;;;;;;;-143.84;33.55;44965.28;5045231;28;20476;-74
2022/03/26 09:25:51;;;;;;;10.80;9.70;;;;;;;-143.84;33.77;44955.75;5045210;28;21031;-73
2022/03/26 09:28:18;;;;;;;13.47;9.87;;;;;;;-143.84;32.96;44980.53;5037453;28;20449;-74
2022/03/26 09:30:46;;;;;;;13.67;9.97;;;;;;;-143.84;33.24;44971.00;5035155;28;20494;-74
2022/03/26 09:33:13;;;;;;;11.43;9.63;;;;;;;-143.84;33.43;44974.81;5038138;28;20454;-73
2022/03/26 09:35:41;;;;;;;14.00;10.03;;;;;;;-143.84;33.61;44969.09;5036019;28;20451;-73
2022/03/26 09:38:08;;;;;;;11.97;9.93;;;;;;;-143.84;33.39;44980.53;5044490;28;20454;-73
2022/03/26 09:40:38;;;;;;;12.80;10.50;;;;;;;-143.84;32.24;44965.28;5042610;28;20458;-73
2022/03/26 09:43:05;;;;;;;14.93;9.77;;;;;;;-143.84;33.23;44976.72;5041319;28;20448;-73
2022/03/26 09:45:33;;;;;;;17.23;10.60;;;;;;;-143.84;32.90;44934.81;5037362;28;20448;-73
2022/03/26 09:48:01;;;;;;;14.17;10.60;;;;;;;-143.84;31.88;44936.72;5036447;28;20453;-73
2022/03/26 09:50:29;;;;;;;12.43;9.53;;;;;;;-143.84;32.15;44959.56;5042854;28;21287;-73
2022/03/26 09:52:57;;;;;;;12.43;11.13;;;;;;;-143.84;31.22;44971.00;5037893;28;20449;-73
2022/03/26 09:55:25;;;;;;;17.37;9.33;;;;;;;-143.84;32.00;44946.25;5040121;28;20481;-73
2022/03/26 09:57:52;;;;;;;56.73;40.00;;;;;;;-143.84;32.03;44950.06;5043706;28;20527;-73
2022/03/26 10:00:19;;;;;;;167.13;107.57;;;;;;;-143.84;31.69;44955.75;5039606;28;20457;-73
2022/03/26 10:02:46;;;;;;;20.07;17.83;;;;;;;-143.84;31.40;44978.63;5045449;28;20849;-73
2022/03/26 10:05:18;;;;;;;16.73;13.50;;;;;;;-143.84;30.47;44950.06;5043021;28;20881;-73
2022/03/26 10:07:46;;;;;;;20.03;9.50;;;;;;;-143.84;31.16;44959.56;5039464;28;20456;-73
2022/03/26 10:10:22;;;;;;;22.17;18.20;;;;;;;-143.84;32.12;44957.66;5035748;28;21354;-74
2022/03/26 10:12:51;;;;;;;11.10;9.80;;;;;;;-143.84;30.33;44986.22;5040441;28;20453;-74
2022/03/26 10:15:19;;;;;;;11.03;9.43;;;;;;;-143.84;30.49;44986.22;5041145;28;20458;-74
2022/03/26 10:17:47;;;;;;;12.30;11.00;;;;;;;-143.84;29.50;44963.38;5034559;28;20461;-73
2022/03/26 10:20:17;;;;;;;12.53;10.20;;;;;;;-143.84;30.37;44971.00;5043090;28;20448;-73
2022/03/26 10:22:45;;;;;;;12.73;8.73;;;;;;;-143.84;30.20;44950.06;5043861;28;20453;-73
2022/03/26 10:25:15;;;;;;;9.67;8.77;;;;;;;-143.84;30.52;44971.00;5042310;28;20446;-73
2022/03/26 10:27:45;;;;;;;12.80;9.63;;;;;;;-143.84;30.37;44961.47;5044410;28;20987;-73
2022/03/26 10:30:14;;;;;;;10.40;9.30;;;;;;;-143.84;30.27;44961.47;5036911;28;20942;-73
2022/03/26 10:32:43;;;;;;;11.37;9.60;;;;;;;-143.84;30.78;44932.91;5041006;28;20516;-73
2022/03/26 10:35:28;;;;;;;13.20;9.90;;;;;;;-143.84;29.93;44957.66;5036298;28;20445;-74
2022/03/26 10:37:58;;;;;;;13.40;9.37;;;;;;;-143.84;29.92;44980.53;5035342;28;20450;-76
2022/03/26 10:40:28;;;;;;;13.40;9.37;;;;;;;-143.84;29.90;44963.38;5030263;28;20453;-76
2022/03/26 10:42:58;;;;;;;9.60;8.70;;;;;;;-143.84;30.07;44971.00;5030512;28;20505;-76
2022/03/26 10:45:27;;;;;;;11.87;9.93;;;;;;;-143.84;30.42;44957.66;5030176;28;20447;-75
2022/03/26 10:47:55;;;;;;;12.67;9.10;;;;;;;-143.84;30.68;44955.75;5030083;28;20535;-75
2022/03/26 10:50:24;;;;;;;10.70;9.13;;;;;;;-143.84;30.79;44967.19;5029936;28;20544;-75
2022/03/26 10:52:54;;;;;;;10.90;9.80;;;;;;;-143.84;30.13;44959.56;5030248;28;20544;-75
2022/03/26 10:55:23;;;;;;;10.10;9.00;;;;;;;-143.84;30.51;44971.00;5029817;28;20486;-75
2022/03/26 10:57:50;;;;;;;13.40;9.00;;;;;;;-143.84;30.10;44944.34;5030178;28;20528;-74
2022/03/26 11:00:19;;;;;;;13.17;8.93;;;;;;;-143.84;29.74;44950.06;5030081;28;21179;-74
2022/03/26 11:02:47;;;;;;;10.83;8.90;;;;;;;-143.84;30.70;44959.56;5029913;28;20527;-75
2022/03/26 11:05:15;;;;;;;10.00;9.00;;;;;;;-143.84;30.13;44959.56;5029878;28;20438;-75
2022/03/26 11:07:44;;;;;;;13.60;9.20;;;;;;;-143.84;30.30;44932.91;5029704;28;20438;-75